sensor_id;sensor_type;location;lat;lon;timestamp;P1;durP1;ratioP1;P2;durP2;ratioP2
13641;SDS011;6894;52.196;9.904;2022-11-14T00:02:26;55.07;;;27.47;;
13641;SDS011;6894;52.196;9.904;2022-11-14T00:04:53;66.23;;;30.40;;
13641;SDS011;6894;52.196;9.904;2022-11-14T00:07:20;58.17;;;29.67;;
13641;SDS011;6894;52.196;9.904;2022-11-14T00:09:48;62.63;;;29.80;;
13641;SDS011;6894;52.196;9.904;2022-11-14T00:12:14;70.50;;;30.80;;
13641;SDS011;6894;52.196;9.904;2022-11-14T00:14:41;56.10;;;28.90;;
13641;SDS011;6894;52.196;9.904;2022-11-14T00:17:08;74.93;;;31.73;;
13641;SDS011;6894;52.196;9.904;2022-11-14T00:19:34;57.93;;;29.97;;
13641;SDS011;6894;52.196;9.904;2022-11-14T00:22:01;71.53;;;32.40;;
13641;SDS011;6894;52.196;9.904;2022-11-14T00:24:28;56.50;;;29.40;;
13641;SDS011;6894;52.196;9.904;2022-11-14T00:26:56;53.90;;;29.00;;
13641;SDS011;6894;52.196;9.904;2022-11-14T00:29:23;59.13;;;31.30;;
13641;SDS011;6894;52.196;9.904;2022-11-14T00:31:49;67.43;;;31.67;;
13641;SDS011;6894;52.196;9.904;2022-11-14T00:34:16;59.43;;;29.43;;
13641;SDS011;6894;52.196;9.904;2022-11-14T00:36:43;57.93;;;30.87;;
13641;SDS011;6894;52.196;9.904;2022-11-14T00:39:10;57.60;;;31.20;;
13641;SDS011;6894;52.196;9.904;2022-11-14T00:41:38;55.50;;;30.20;;
13641;SDS011;6894;52.196;9.904;2022-11-14T00:44:06;66.63;;;32.63;;
13641;SDS011;6894;52.196;9.904;2022-11-14T00:46:33;54.20;;;28.10;;
13641;SDS011;6894;52.196;9.904;2022-11-14T00:49:00;59.43;;;29.20;;
13641;SDS011;6894;52.196;9.904;2022-11-14T00:51:26;49.27;;;27.40;;
13641;SDS011;6894;52.196;9.904;2022-11-14T00:53:53;61.63;;;29.13;;
13641;SDS011;6894;52.196;9.904;2022-11-14T00:56:20;56.10;;;30.87;;
13641;SDS011;6894;52.196;9.904;2022-11-14T00:58:47;59.23;;;27.47;;
13641;SDS011;6894;52.196;9.904;2022-11-14T01:01:15;53.10;;;28.67;;
13641;SDS011;6894;52.196;9.904;2022-11-14T01:03:42;57.97;;;30.07;;
13641;SDS011;6894;52.196;9.904;2022-11-14T01:06:12;49.83;;;28.23;;
13641;SDS011;6894;52.196;9.904;2022-11-14T01:08:39;51.10;;;27.77;;
13641;SDS011;6894;52.196;9.904;2022-11-14T01:11:08;52.10;;;27.07;;
13641;SDS011;6894;52.196;9.904;2022-11-14T01:13:37;58.60;;;30.07;;
13641;SDS011;6894;52.196;9.904;2022-11-14T01:16:04;62.13;;;30.00;;
13641;SDS011;6894;52.196;9.904;2022-11-14T01:18:33;53.10;;;28.23;;
13641;SDS011;6894;52.196;9.904;2022-11-14T01:21:03;53.13;;;28.73;;
13641;SDS011;6894;52.196;9.904;2022-11-14T01:23:30;64.17;;;31.17;;
13641;SDS011;6894;52.196;9.904;2022-11-14T01:26:00;51.20;;;28.87;;
13641;SDS011;6894;52.196;9.904;2022-11-14T01:28:28;55.97;;;29.17;;
13641;SDS011;6894;52.196;9.904;2022-11-14T01:30:55;60.83;;;30.60;;
13641;SDS011;6894;52.196;9.904;2022-11-14T01:33:22;53.80;;;29.50;;
13641;SDS011;6894;52.196;9.904;2022-11-14T01:35:50;52.10;;;29.10;;
13641;SDS011;6894;52.196;9.904;2022-11-14T01:38:16;51.80;;;27.03;;
13641;SDS011;6894;52.196;9.904;2022-11-14T01:40:43;49.53;;;27.90;;
13641;SDS011;6894;52.196;9.904;2022-11-14T01:45:57;51.13;;;28.80;;
13641;SDS011;6894;52.196;9.904;2022-11-14T01:48:28;55.13;;;29.57;;
13641;SDS011;6894;52.196;9.904;2022-11-14T01:51:00;51.70;;;28.20;;
13641;SDS011;6894;52.196;9.904;2022-11-14T01:53:30;52.40;;;28.20;;
13641;SDS011;6894;52.196;9.904;2022-11-14T01:55:58;65.63;;;31.10;;
13641;SDS011;6894;52.196;9.904;2022-11-14T01:58:29;52.93;;;28.63;;
13641;SDS011;6894;52.196;9.904;2022-11-14T02:00:57;50.67;;;27.87;;
13641;SDS011;6894;52.196;9.904;2022-11-14T02:03:24;46.57;;;27.37;;
13641;SDS011;6894;52.196;9.904;2022-11-14T02:05:51;49.57;;;27.17;;
13641;SDS011;6894;52.196;9.904;2022-11-14T02:08:20;43.10;;;26.73;;
13641;SDS011;6894;52.196;9.904;2022-11-14T02:10:48;48.10;;;28.00;;
13641;SDS011;6894;52.196;9.904;2022-11-14T02:13:15;46.57;;;26.23;;
13641;SDS011;6894;52.196;9.904;2022-11-14T02:15:41;44.60;;;26.70;;
13641;SDS011;6894;52.196;9.904;2022-11-14T02:18:08;47.23;;;26.47;;
13641;SDS011;6894;52.196;9.904;2022-11-14T02:20:38;52.47;;;27.73;;
13641;SDS011;6894;52.196;9.904;2022-11-14T02:23:07;43.10;;;27.27;;
13641;SDS011;6894;52.196;9.904;2022-11-14T02:25:35;42.03;;;24.97;;
13641;SDS011;6894;52.196;9.904;2022-11-14T02:28:03;45.00;;;26.60;;
13641;SDS011;6894;52.196;9.904;2022-11-14T02:30:30;45.07;;;27.10;;
13641;SDS011;6894;52.196;9.904;2022-11-14T02:32:57;48.10;;;27.30;;
13641;SDS011;6894;52.196;9.904;2022-11-14T02:35:24;44.00;;;26.63;;
13641;SDS011;6894;52.196;9.904;2022-11-14T02:37:52;43.13;;;25.10;;
13641;SDS011;6894;52.196;9.904;2022-11-14T02:40:19;41.50;;;24.97;;
13641;SDS011;6894;52.196;9.904;2022-11-14T02:42:46;54.77;;;28.63;;
13641;SDS011;6894;52.196;9.904;2022-11-14T02:45:13;46.33;;;26.63;;
13641;SDS011;6894;52.196;9.904;2022-11-14T02:47:39;44.90;;;26.67;;
13641;SDS011;6894;52.196;9.904;2022-11-14T02:50:06;41.87;;;24.53;;
13641;SDS011;6894;52.196;9.904;2022-11-14T02:52:34;46.20;;;26.47;;
13641;SDS011;6894;52.196;9.904;2022-11-14T02:55:02;51.93;;;27.57;;
13641;SDS011;6894;52.196;9.904;2022-11-14T02:57:29;42.50;;;24.67;;
13641;SDS011;6894;52.196;9.904;2022-11-14T02:59:55;41.07;;;25.03;;
13641;SDS011;6894;52.196;9.904;2022-11-14T03:02:22;42.50;;;25.00;;
13641;SDS011;6894;52.196;9.904;2022-11-14T03:04:49;41.53;;;25.20;;
13641;SDS011;6894;52.196;9.904;2022-11-14T03:07:15;42.30;;;25.63;;
13641;SDS011;6894;52.196;9.904;2022-11-14T03:09:42;38.17;;;25.93;;
13641;SDS011;6894;52.196;9.904;2022-11-14T03:12:10;41.63;;;26.23;;
13641;SDS011;6894;52.196;9.904;2022-11-14T03:14:40;42.00;;;25.53;;
13641;SDS011;6894;52.196;9.904;2022-11-14T03:17:07;41.40;;;25.77;;
13641;SDS011;6894;52.196;9.904;2022-11-14T03:19:33;42.77;;;25.77;;
13641;SDS011;6894;52.196;9.904;2022-11-14T03:22:00;40.27;;;24.03;;
13641;SDS011;6894;52.196;9.904;2022-11-14T03:24:27;41.30;;;25.40;;
13641;SDS011;6894;52.196;9.904;2022-11-14T03:26:54;41.40;;;25.07;;
13641;SDS011;6894;52.196;9.904;2022-11-14T03:29:22;45.63;;;26.73;;
13641;SDS011;6894;52.196;9.904;2022-11-14T03:31:48;45.47;;;26.87;;
13641;SDS011;6894;52.196;9.904;2022-11-14T03:34:15;38.63;;;24.87;;
13641;SDS011;6894;52.196;9.904;2022-11-14T03:36:42;42.70;;;25.97;;
13641;SDS011;6894;52.196;9.904;2022-11-14T03:39:08;41.53;;;24.70;;
13641;SDS011;6894;52.196;9.904;2022-11-14T03:41:35;46.67;;;26.20;;
13641;SDS011;6894;52.196;9.904;2022-11-14T03:44:02;45.53;;;26.97;;
13641;SDS011;6894;52.196;9.904;2022-11-14T03:46:30;44.40;;;26.27;;
13641;SDS011;6894;52.196;9.904;2022-11-14T03:48:57;41.63;;;24.93;;
13641;SDS011;6894;52.196;9.904;2022-11-14T03:51:23;43.67;;;25.77;;
13641;SDS011;6894;52.196;9.904;2022-11-14T03:53:50;41.93;;;25.47;;
13641;SDS011;6894;52.196;9.904;2022-11-14T03:56:17;47.70;;;25.17;;
13641;SDS011;6894;52.196;9.904;2022-11-14T03:58:43;44.70;;;26.60;;
13641;SDS011;6894;52.196;9.904;2022-11-14T04:01:10;38.77;;;24.70;;
13641;SDS011;6894;52.196;9.904;2022-11-14T04:03:38;48.97;;;26.33;;
13641;SDS011;6894;52.196;9.904;2022-11-14T04:06:05;42.03;;;24.90;;
13641;SDS011;6894;52.196;9.904;2022-11-14T04:08:32;40.03;;;25.23;;
13641;SDS011;6894;52.196;9.904;2022-11-14T04:10:58;49.17;;;28.23;;
13641;SDS011;6894;52.196;9.904;2022-11-14T04:13:25;43.93;;;25.23;;
13641;SDS011;6894;52.196;9.904;2022-11-14T04:15:55;45.20;;;26.47;;
13641;SDS011;6894;52.196;9.904;2022-11-14T04:18:23;42.20;;;25.97;;
13641;SDS011;6894;52.196;9.904;2022-11-14T04:20:51;49.97;;;26.87;;
13641;SDS011;6894;52.196;9.904;2022-11-14T04:23:18;43.07;;;26.30;;
13641;SDS011;6894;52.196;9.904;2022-11-14T04:25:45;50.90;;;26.70;;
13641;SDS011;6894;52.196;9.904;2022-11-14T04:28:12;41.73;;;24.20;;
13641;SDS011;6894;52.196;9.904;2022-11-14T04:30:39;48.17;;;25.93;;
13641;SDS011;6894;52.196;9.904;2022-11-14T04:33:06;37.53;;;23.73;;
13641;SDS011;6894;52.196;9.904;2022-11-14T04:35:32;37.43;;;22.50;;
13641;SDS011;6894;52.196;9.904;2022-11-14T04:38:00;40.10;;;23.93;;
13641;SDS011;6894;52.196;9.904;2022-11-14T04:40:27;36.47;;;23.77;;
13641;SDS011;6894;52.196;9.904;2022-11-14T04:42:55;37.87;;;22.23;;
13641;SDS011;6894;52.196;9.904;2022-11-14T04:45:22;34.20;;;21.63;;
13641;SDS011;6894;52.196;9.904;2022-11-14T04:47:48;34.93;;;21.80;;
13641;SDS011;6894;52.196;9.904;2022-11-14T04:50:15;36.20;;;22.67;;
13641;SDS011;6894;52.196;9.904;2022-11-14T04:52:42;48.43;;;23.73;;
13641;SDS011;6894;52.196;9.904;2022-11-14T04:55:10;40.70;;;23.43;;
13641;SDS011;6894;52.196;9.904;2022-11-14T04:57:37;37.23;;;20.70;;
13641;SDS011;6894;52.196;9.904;2022-11-14T05:00:04;35.60;;;21.23;;
13641;SDS011;6894;52.196;9.904;2022-11-14T05:02:31;33.70;;;21.03;;
13641;SDS011;6894;52.196;9.904;2022-11-14T05:04:58;42.23;;;22.80;;
13641;SDS011;6894;52.196;9.904;2022-11-14T05:07:25;34.40;;;20.93;;
13641;SDS011;6894;52.196;9.904;2022-11-14T05:09:51;31.93;;;20.73;;
13641;SDS011;6894;52.196;9.904;2022-11-14T05:12:19;40.57;;;21.23;;
13641;SDS011;6894;52.196;9.904;2022-11-14T05:14:46;33.23;;;20.53;;
13641;SDS011;6894;52.196;9.904;2022-11-14T05:17:13;35.07;;;21.07;;
13641;SDS011;6894;52.196;9.904;2022-11-14T05:19:40;38.20;;;21.83;;
13641;SDS011;6894;52.196;9.904;2022-11-14T05:22:07;35.60;;;21.70;;
13641;SDS011;6894;52.196;9.904;2022-11-14T05:24:34;39.03;;;22.53;;
13641;SDS011;6894;52.196;9.904;2022-11-14T05:27:00;51.23;;;24.90;;
13641;SDS011;6894;52.196;9.904;2022-11-14T05:29:28;38.03;;;23.43;;
13641;SDS011;6894;52.196;9.904;2022-11-14T05:31:55;37.63;;;22.93;;
13641;SDS011;6894;52.196;9.904;2022-11-14T05:34:22;42.23;;;23.77;;
13641;SDS011;6894;52.196;9.904;2022-11-14T05:36:49;45.20;;;24.77;;
13641;SDS011;6894;52.196;9.904;2022-11-14T05:39:16;40.67;;;24.33;;
13641;SDS011;6894;52.196;9.904;2022-11-14T05:41:43;48.63;;;23.20;;
13641;SDS011;6894;52.196;9.904;2022-11-14T05:44:09;38.80;;;23.33;;
13641;SDS011;6894;52.196;9.904;2022-11-14T05:46:37;36.17;;;21.87;;
13641;SDS011;6894;52.196;9.904;2022-11-14T05:49:04;44.23;;;23.27;;
13641;SDS011;6894;52.196;9.904;2022-11-14T05:51:31;38.73;;;22.83;;
13641;SDS011;6894;52.196;9.904;2022-11-14T05:53:58;38.00;;;22.40;;
13641;SDS011;6894;52.196;9.904;2022-11-14T05:56:24;51.47;;;25.43;;
13641;SDS011;6894;52.196;9.904;2022-11-14T05:58:52;41.23;;;24.13;;
13641;SDS011;6894;52.196;9.904;2022-11-14T06:01:18;46.30;;;24.33;;
13641;SDS011;6894;52.196;9.904;2022-11-14T06:03:47;38.57;;;23.87;;
13641;SDS011;6894;52.196;9.904;2022-11-14T06:06:14;49.60;;;25.67;;
13641;SDS011;6894;52.196;9.904;2022-11-14T06:08:42;43.23;;;23.87;;
13641;SDS011;6894;52.196;9.904;2022-11-14T06:11:09;48.23;;;23.37;;
13641;SDS011;6894;52.196;9.904;2022-11-14T06:13:38;45.33;;;24.20;;
13641;SDS011;6894;52.196;9.904;2022-11-14T06:16:06;43.43;;;24.10;;
13641;SDS011;6894;52.196;9.904;2022-11-14T06:18:35;50.93;;;25.60;;
13641;SDS011;6894;52.196;9.904;2022-11-14T06:21:04;44.60;;;24.00;;
13641;SDS011;6894;52.196;9.904;2022-11-14T06:23:32;41.90;;;24.47;;
13641;SDS011;6894;52.196;9.904;2022-11-14T06:25:59;44.43;;;23.90;;
13641;SDS011;6894;52.196;9.904;2022-11-14T06:28:26;40.03;;;23.50;;
13641;SDS011;6894;52.196;9.904;2022-11-14T06:30:55;39.63;;;23.20;;
13641;SDS011;6894;52.196;9.904;2022-11-14T06:33:23;42.40;;;22.20;;
13641;SDS011;6894;52.196;9.904;2022-11-14T06:35:50;36.90;;;21.50;;
13641;SDS011;6894;52.196;9.904;2022-11-14T06:38:18;45.50;;;23.97;;
13641;SDS011;6894;52.196;9.904;2022-11-14T06:40:44;36.17;;;21.73;;
13641;SDS011;6894;52.196;9.904;2022-11-14T06:43:11;40.23;;;22.80;;
13641;SDS011;6894;52.196;9.904;2022-11-14T06:45:38;39.00;;;23.30;;
13641;SDS011;6894;52.196;9.904;2022-11-14T06:48:05;45.43;;;23.60;;
13641;SDS011;6894;52.196;9.904;2022-11-14T06:50:31;38.03;;;22.67;;
13641;SDS011;6894;52.196;9.904;2022-11-14T06:52:58;41.60;;;22.73;;
13641;SDS011;6894;52.196;9.904;2022-11-14T06:55:26;49.73;;;23.53;;
13641;SDS011;6894;52.196;9.904;2022-11-14T06:57:53;39.57;;;22.43;;
13641;SDS011;6894;52.196;9.904;2022-11-14T07:00:20;46.87;;;24.03;;
13641;SDS011;6894;52.196;9.904;2022-11-14T07:02:47;39.30;;;21.77;;
13641;SDS011;6894;52.196;9.904;2022-11-14T07:05:14;38.47;;;22.13;;
13641;SDS011;6894;52.196;9.904;2022-11-14T07:07:41;51.20;;;23.73;;
13641;SDS011;6894;52.196;9.904;2022-11-14T07:10:08;41.90;;;22.47;;
13641;SDS011;6894;52.196;9.904;2022-11-14T07:12:36;37.70;;;22.73;;
13641;SDS011;6894;52.196;9.904;2022-11-14T07:15:03;50.23;;;24.63;;
13641;SDS011;6894;52.196;9.904;2022-11-14T07:17:30;40.20;;;22.33;;
13641;SDS011;6894;52.196;9.904;2022-11-14T07:19:59;46.87;;;24.20;;
13641;SDS011;6894;52.196;9.904;2022-11-14T07:22:26;37.83;;;20.67;;
13641;SDS011;6894;52.196;9.904;2022-11-14T07:24:53;47.97;;;22.90;;
13641;SDS011;6894;52.196;9.904;2022-11-14T07:27:19;40.23;;;22.93;;
13641;SDS011;6894;52.196;9.904;2022-11-14T07:29:47;46.30;;;23.13;;
13641;SDS011;6894;52.196;9.904;2022-11-14T07:32:14;43.13;;;22.47;;
13641;SDS011;6894;52.196;9.904;2022-11-14T07:34:41;38.30;;;23.40;;
13641;SDS011;6894;52.196;9.904;2022-11-14T07:37:07;45.37;;;24.13;;
13641;SDS011;6894;52.196;9.904;2022-11-14T07:39:34;55.20;;;25.77;;
13641;SDS011;6894;52.196;9.904;2022-11-14T07:42:01;41.03;;;23.00;;
13641;SDS011;6894;52.196;9.904;2022-11-14T07:44:27;40.07;;;22.23;;
13641;SDS011;6894;52.196;9.904;2022-11-14T07:46:55;49.17;;;24.47;;
13641;SDS011;6894;52.196;9.904;2022-11-14T07:49:22;40.00;;;22.80;;
13641;SDS011;6894;52.196;9.904;2022-11-14T07:51:49;41.30;;;21.43;;
13641;SDS011;6894;52.196;9.904;2022-11-14T07:54:15;45.90;;;24.47;;
13641;SDS011;6894;52.196;9.904;2022-11-14T07:56:42;45.13;;;23.37;;
13641;SDS011;6894;52.196;9.904;2022-11-14T07:59:09;42.10;;;22.97;;
13641;SDS011;6894;52.196;9.904;2022-11-14T08:01:36;42.93;;;25.10;;
13641;SDS011;6894;52.196;9.904;2022-11-14T08:04:04;49.80;;;24.53;;
13641;SDS011;6894;52.196;9.904;2022-11-14T08:06:30;44.90;;;23.20;;
13641;SDS011;6894;52.196;9.904;2022-11-14T08:08:57;43.50;;;24.17;;
13641;SDS011;6894;52.196;9.904;2022-11-14T08:11:24;54.63;;;25.40;;
13641;SDS011;6894;52.196;9.904;2022-11-14T08:14:05;44.50;;;23.80;;
13641;SDS011;6894;52.196;9.904;2022-11-14T08:16:32;42.47;;;24.17;;
13641;SDS011;6894;52.196;9.904;2022-11-14T08:18:59;41.07;;;24.10;;
13641;SDS011;6894;52.196;9.904;2022-11-14T08:21:27;55.30;;;25.40;;
13641;SDS011;6894;52.196;9.904;2022-11-14T08:23:53;47.27;;;23.27;;
13641;SDS011;6894;52.196;9.904;2022-11-14T08:26:20;55.93;;;25.50;;
13641;SDS011;6894;52.196;9.904;2022-11-14T08:28:47;41.83;;;23.97;;
13641;SDS011;6894;52.196;9.904;2022-11-14T08:31:17;43.10;;;24.33;;
13641;SDS011;6894;52.196;9.904;2022-11-14T08:33:44;46.87;;;25.60;;
13641;SDS011;6894;52.196;9.904;2022-11-14T08:36:11;53.20;;;25.33;;
13641;SDS011;6894;52.196;9.904;2022-11-14T08:38:39;49.43;;;25.43;;
13641;SDS011;6894;52.196;9.904;2022-11-14T08:41:06;49.87;;;24.83;;
13641;SDS011;6894;52.196;9.904;2022-11-14T08:43:33;42.10;;;23.23;;
13641;SDS011;6894;52.196;9.904;2022-11-14T08:46:00;44.23;;;25.13;;
13641;SDS011;6894;52.196;9.904;2022-11-14T08:48:28;50.57;;;24.60;;
13641;SDS011;6894;52.196;9.904;2022-11-14T08:50:55;40.57;;;22.97;;
13641;SDS011;6894;52.196;9.904;2022-11-14T08:53:22;49.30;;;25.40;;
13641;SDS011;6894;52.196;9.904;2022-11-14T08:55:50;40.10;;;23.47;;
13641;SDS011;6894;52.196;9.904;2022-11-14T08:58:17;42.23;;;24.27;;
13641;SDS011;6894;52.196;9.904;2022-11-14T09:00:43;43.70;;;23.57;;
13641;SDS011;6894;52.196;9.904;2022-11-14T09:03:10;51.30;;;25.60;;
13641;SDS011;6894;52.196;9.904;2022-11-14T09:05:39;39.83;;;23.83;;
13641;SDS011;6894;52.196;9.904;2022-11-14T09:08:05;41.30;;;23.13;;
13641;SDS011;6894;52.196;9.904;2022-11-14T09:10:32;44.13;;;23.63;;
13641;SDS011;6894;52.196;9.904;2022-11-14T09:13:01;43.67;;;22.83;;
13641;SDS011;6894;52.196;9.904;2022-11-14T09:15:27;45.43;;;24.00;;
13641;SDS011;6894;52.196;9.904;2022-11-14T09:17:55;41.20;;;23.93;;
13641;SDS011;6894;52.196;9.904;2022-11-14T09:20:22;44.00;;;24.00;;
13641;SDS011;6894;52.196;9.904;2022-11-14T09:22:50;50.90;;;25.53;;
13641;SDS011;6894;52.196;9.904;2022-11-14T09:25:17;39.03;;;23.00;;
13641;SDS011;6894;52.196;9.904;2022-11-14T09:27:44;41.33;;;22.43;;
13641;SDS011;6894;52.196;9.904;2022-11-14T09:30:13;40.97;;;22.10;;
13641;SDS011;6894;52.196;9.904;2022-11-14T09:32:40;37.70;;;21.53;;
13641;SDS011;6894;52.196;9.904;2022-11-14T09:35:07;36.37;;;22.07;;
13641;SDS011;6894;52.196;9.904;2022-11-14T09:37:34;40.23;;;21.57;;
13641;SDS011;6894;52.196;9.904;2022-11-14T09:40:01;32.73;;;20.83;;
13641;SDS011;6894;52.196;9.904;2022-11-14T09:42:30;34.33;;;21.57;;
13641;SDS011;6894;52.196;9.904;2022-11-14T09:45:09;37.13;;;22.00;;
13641;SDS011;6894;52.196;9.904;2022-11-14T09:47:40;31.27;;;20.30;;
13641;SDS011;6894;52.196;9.904;2022-11-14T09:50:10;39.00;;;21.63;;
13641;SDS011;6894;52.196;9.904;2022-11-14T09:52:39;34.50;;;20.97;;
13641;SDS011;6894;52.196;9.904;2022-11-14T09:55:10;30.93;;;20.77;;
13641;SDS011;6894;52.196;9.904;2022-11-14T09:57:39;36.77;;;21.30;;
13641;SDS011;6894;52.196;9.904;2022-11-14T10:00:13;33.10;;;20.23;;
13641;SDS011;6894;52.196;9.904;2022-11-14T10:02:45;38.63;;;22.43;;
13641;SDS011;6894;52.196;9.904;2022-11-14T10:05:29;32.67;;;20.53;;
13641;SDS011;6894;52.196;9.904;2022-11-14T10:08:19;32.57;;;20.83;;
13641;SDS011;6894;52.196;9.904;2022-11-14T10:11:04;32.77;;;20.27;;
13641;SDS011;6894;52.196;9.904;2022-11-14T10:16:43;34.57;;;20.93;;
13641;SDS011;6894;52.196;9.904;2022-11-14T10:19:17;38.60;;;21.87;;
13641;SDS011;6894;52.196;9.904;2022-11-14T10:21:53;32.80;;;20.17;;
13641;SDS011;6894;52.196;9.904;2022-11-14T10:24:31;35.50;;;20.27;;
13641;SDS011;6894;52.196;9.904;2022-11-14T10:27:24;33.37;;;21.13;;
13641;SDS011;6894;52.196;9.904;2022-11-14T10:30:03;32.93;;;21.57;;
13641;SDS011;6894;52.196;9.904;2022-11-14T10:32:43;30.93;;;20.97;;
13641;SDS011;6894;52.196;9.904;2022-11-14T10:35:27;25.73;;;17.90;;
13641;SDS011;6894;52.196;9.904;2022-11-14T10:37:57;28.37;;;19.93;;
13641;SDS011;6894;52.196;9.904;2022-11-14T10:40:34;32.60;;;21.77;;
13641;SDS011;6894;52.196;9.904;2022-11-14T10:43:06;33.50;;;21.10;;
13641;SDS011;6894;52.196;9.904;2022-11-14T10:45:43;36.23;;;21.73;;
13641;SDS011;6894;52.196;9.904;2022-11-14T10:48:20;28.43;;;18.17;;
13641;SDS011;6894;52.196;9.904;2022-11-14T10:50:55;23.73;;;16.47;;
13641;SDS011;6894;52.196;9.904;2022-11-14T10:53:26;33.93;;;19.50;;
13641;SDS011;6894;52.196;9.904;2022-11-14T10:56:01;27.53;;;18.90;;
13641;SDS011;6894;52.196;9.904;2022-11-14T10:58:30;35.93;;;20.93;;
13641;SDS011;6894;52.196;9.904;2022-11-14T11:00:57;25.30;;;18.17;;
13641;SDS011;6894;52.196;9.904;2022-11-14T11:04:18;26.80;;;18.10;;
13641;SDS011;6894;52.196;9.904;2022-11-14T11:06:46;26.63;;;18.23;;
13641;SDS011;6894;52.196;9.904;2022-11-14T11:09:14;25.07;;;17.73;;
13641;SDS011;6894;52.196;9.904;2022-11-14T11:12:02;24.63;;;17.23;;
13641;SDS011;6894;52.196;9.904;2022-11-14T11:14:30;26.17;;;17.20;;
13641;SDS011;6894;52.196;9.904;2022-11-14T11:17:06;20.37;;;15.50;;
13641;SDS011;6894;52.196;9.904;2022-11-14T11:19:50;25.93;;;17.57;;
13641;SDS011;6894;52.196;9.904;2022-11-14T11:22:28;21.23;;;16.57;;
13641;SDS011;6894;52.196;9.904;2022-11-14T11:25:00;20.80;;;15.93;;
13641;SDS011;6894;52.196;9.904;2022-11-14T11:27:27;26.37;;;17.97;;
13641;SDS011;6894;52.196;9.904;2022-11-14T11:30:00;25.30;;;18.27;;
13641;SDS011;6894;52.196;9.904;2022-11-14T11:32:42;22.20;;;17.50;;
13641;SDS011;6894;52.196;9.904;2022-11-14T11:35:12;21.90;;;16.83;;
13641;SDS011;6894;52.196;9.904;2022-11-14T11:37:43;21.67;;;16.43;;
13641;SDS011;6894;52.196;9.904;2022-11-14T11:40:14;20.43;;;16.80;;
13641;SDS011;6894;52.196;9.904;2022-11-14T11:42:44;21.73;;;16.87;;
13641;SDS011;6894;52.196;9.904;2022-11-14T11:45:17;21.03;;;17.00;;
13641;SDS011;6894;52.196;9.904;2022-11-14T11:47:47;22.07;;;17.60;;
13641;SDS011;6894;52.196;9.904;2022-11-14T11:50:20;22.20;;;17.60;;
13641;SDS011;6894;52.196;9.904;2022-11-14T11:52:51;24.83;;;21.77;;
13641;SDS011;6894;52.196;9.904;2022-11-14T11:55:25;19.37;;;16.20;;
13641;SDS011;6894;52.196;9.904;2022-11-14T11:57:56;18.17;;;15.73;;
13641;SDS011;6894;52.196;9.904;2022-11-14T12:00:27;19.63;;;15.87;;
13641;SDS011;6894;52.196;9.904;2022-11-14T12:02:55;18.20;;;15.00;;
13641;SDS011;6894;52.196;9.904;2022-11-14T12:05:27;19.63;;;16.30;;
13641;SDS011;6894;52.196;9.904;2022-11-14T12:08:00;18.03;;;15.93;;
13641;SDS011;6894;52.196;9.904;2022-11-14T12:10:31;19.33;;;15.70;;
13641;SDS011;6894;52.196;9.904;2022-11-14T12:16:10;20.67;;;16.40;;
13641;SDS011;6894;52.196;9.904;2022-11-14T12:18:57;18.80;;;15.43;;
13641;SDS011;6894;52.196;9.904;2022-11-14T12:21:46;19.67;;;16.07;;
13641;SDS011;6894;52.196;9.904;2022-11-14T12:24:34;17.17;;;14.53;;
13641;SDS011;6894;52.196;9.904;2022-11-14T12:27:18;16.67;;;14.87;;
13641;SDS011;6894;52.196;9.904;2022-11-14T12:30:00;18.87;;;14.83;;
13641;SDS011;6894;52.196;9.904;2022-11-14T12:32:35;16.07;;;13.97;;
13641;SDS011;6894;52.196;9.904;2022-11-14T12:35:08;17.97;;;14.70;;
13641;SDS011;6894;52.196;9.904;2022-11-14T12:37:43;67.73;;;43.53;;
13641;SDS011;6894;52.196;9.904;2022-11-14T12:40:19;37.93;;;28.20;;
13641;SDS011;6894;52.196;9.904;2022-11-14T12:42:54;17.47;;;14.33;;
13641;SDS011;6894;52.196;9.904;2022-11-14T12:48:21;17.40;;;14.53;;
13641;SDS011;6894;52.196;9.904;2022-11-14T12:50:54;16.63;;;14.13;;
13641;SDS011;6894;52.196;9.904;2022-11-14T12:53:42;17.43;;;15.57;;
13641;SDS011;6894;52.196;9.904;2022-11-14T12:56:16;16.57;;;14.77;;
13641;SDS011;6894;52.196;9.904;2022-11-14T13:01:54;19.00;;;16.83;;
13641;SDS011;6894;52.196;9.904;2022-11-14T13:04:50;21.83;;;17.90;;
13641;SDS011;6894;52.196;9.904;2022-11-14T13:07:28;18.97;;;16.37;;
13641;SDS011;6894;52.196;9.904;2022-11-14T13:10:12;22.60;;;18.10;;
13641;SDS011;6894;52.196;9.904;2022-11-14T13:12:40;18.93;;;16.97;;
13641;SDS011;6894;52.196;9.904;2022-11-14T13:15:26;22.70;;;18.47;;
13641;SDS011;6894;52.196;9.904;2022-11-14T13:18:13;19.20;;;17.03;;
13641;SDS011;6894;52.196;9.904;2022-11-14T13:21:02;18.70;;;16.50;;
13641;SDS011;6894;52.196;9.904;2022-11-14T13:23:55;20.17;;;17.50;;
13641;SDS011;6894;52.196;9.904;2022-11-14T13:26:39;22.27;;;18.43;;
13641;SDS011;6894;52.196;9.904;2022-11-14T13:35:25;21.53;;;18.63;;
13641;SDS011;6894;52.196;9.904;2022-11-14T13:44:49;19.20;;;17.10;;
13641;SDS011;6894;52.196;9.904;2022-11-14T13:47:49;19.10;;;17.10;;
13641;SDS011;6894;52.196;9.904;2022-11-14T13:50:39;19.60;;;17.27;;
13641;SDS011;6894;52.196;9.904;2022-11-14T13:53:11;19.70;;;17.13;;
13641;SDS011;6894;52.196;9.904;2022-11-14T13:55:47;20.80;;;16.63;;
13641;SDS011;6894;52.196;9.904;2022-11-14T13:58:23;18.53;;;16.50;;
13641;SDS011;6894;52.196;9.904;2022-11-14T14:01:04;17.97;;;16.03;;
13641;SDS011;6894;52.196;9.904;2022-11-14T14:03:43;20.13;;;16.23;;
13641;SDS011;6894;52.196;9.904;2022-11-14T14:06:25;21.97;;;17.67;;
13641;SDS011;6894;52.196;9.904;2022-11-14T14:09:05;18.07;;;15.63;;
13641;SDS011;6894;52.196;9.904;2022-11-14T14:11:44;19.87;;;17.60;;
13641;SDS011;6894;52.196;9.904;2022-11-14T14:14:24;20.80;;;18.57;;
13641;SDS011;6894;52.196;9.904;2022-11-14T14:17:03;20.27;;;17.10;;
13641;SDS011;6894;52.196;9.904;2022-11-14T14:19:40;19.73;;;17.83;;
13641;SDS011;6894;52.196;9.904;2022-11-14T14:22:18;24.10;;;19.27;;
13641;SDS011;6894;52.196;9.904;2022-11-14T14:24:56;24.47;;;20.93;;
13641;SDS011;6894;52.196;9.904;2022-11-14T14:27:31;24.23;;;19.13;;
13641;SDS011;6894;52.196;9.904;2022-11-14T14:30:05;24.73;;;20.17;;
13641;SDS011;6894;52.196;9.904;2022-11-14T14:32:36;23.33;;;20.47;;
13641;SDS011;6894;52.196;9.904;2022-11-14T14:35:19;29.40;;;22.00;;
13641;SDS011;6894;52.196;9.904;2022-11-14T14:37:50;27.73;;;22.40;;
13641;SDS011;6894;52.196;9.904;2022-11-14T14:40:22;29.57;;;21.27;;
13641;SDS011;6894;52.196;9.904;2022-11-14T14:42:51;33.23;;;23.67;;
13641;SDS011;6894;52.196;9.904;2022-11-14T14:45:19;29.47;;;22.40;;
13641;SDS011;6894;52.196;9.904;2022-11-14T14:47:50;30.93;;;23.10;;
13641;SDS011;6894;52.196;9.904;2022-11-14T14:50:25;29.53;;;22.57;;
13641;SDS011;6894;52.196;9.904;2022-11-14T14:52:55;31.90;;;23.67;;
13641;SDS011;6894;52.196;9.904;2022-11-14T14:55:24;33.03;;;24.20;;
13641;SDS011;6894;52.196;9.904;2022-11-14T14:57:53;30.03;;;22.10;;
13641;SDS011;6894;52.196;9.904;2022-11-14T15:00:20;33.60;;;23.30;;
13641;SDS011;6894;52.196;9.904;2022-11-14T15:02:51;36.70;;;24.97;;
13641;SDS011;6894;52.196;9.904;2022-11-14T15:05:20;34.87;;;24.17;;
13641;SDS011;6894;52.196;9.904;2022-11-14T15:07:49;34.00;;;24.47;;
13641;SDS011;6894;52.196;9.904;2022-11-14T15:10:18;34.57;;;22.73;;
13641;SDS011;6894;52.196;9.904;2022-11-14T15:12:47;31.87;;;23.33;;
13641;SDS011;6894;52.196;9.904;2022-11-14T15:15:14;29.40;;;22.73;;
13641;SDS011;6894;52.196;9.904;2022-11-14T15:17:44;29.00;;;23.20;;
13641;SDS011;6894;52.196;9.904;2022-11-14T15:20:22;31.43;;;23.67;;